sensor_id;sensor_type;location;lat;lon;timestamp;pressure;altitude;pressure_sealevel;temperature;humidity
57094;BME280;42970;50.996;3.706;2022-07-29T00:02:07;75896.28;;;-146.65;53.36
57094;BME280;42970;50.996;3.706;2022-07-29T00:04:36;75892.25;;;-146.65;53.44
57094;BME280;42970;50.996;3.706;2022-07-29T00:07:02;75900.31;;;-146.65;53.57
57094;BME280;42970;50.996;3.706;2022-07-29T00:09:28;75904.34;;;-146.65;53.52
57094;BME280;42970;50.996;3.706;2022-07-29T00:11:56;75902.34;;;-146.65;53.47
57094;BME280;42970;50.996;3.706;2022-07-29T00:14:24;75902.34;;;-146.65;53.77
57094;BME280;42970;50.996;3.706;2022-07-29T00:16:49;75900.31;;;-146.65;53.65
57094;BME280;42970;50.996;3.706;2022-07-29T00:19:15;75908.41;;;-146.65;53.81
57094;BME280;42970;50.996;3.706;2022-07-29T00:21:41;75914.44;;;-146.65;53.81
57094;BME280;42970;50.996;3.706;2022-07-29T00:24:07;75920.50;;;-146.65;53.78
57094;BME280;42970;50.996;3.706;2022-07-29T00:26:33;75918.47;;;-146.65;53.88
57094;BME280;42970;50.996;3.706;2022-07-29T00:28:59;75920.50;;;-146.65;53.86
57094;BME280;42970;50.996;3.706;2022-07-29T00:31:25;75918.47;;;-146.65;53.77
57094;BME280;42970;50.996;3.706;2022-07-29T00:33:51;75928.56;;;-146.65;54.24
57094;BME280;42970;50.996;3.706;2022-07-29T00:36:16;75930.59;;;-146.65;54.50
57094;BME280;42970;50.996;3.706;2022-07-29T00:38:42;75928.56;;;-146.65;54.50
57094;BME280;42970;50.996;3.706;2022-07-29T00:41:11;75938.66;;;-146.65;54.56
57094;BME280;42970;50.996;3.706;2022-07-29T00:43:37;75944.69;;;-146.65;55.12
57094;BME280;42970;50.996;3.706;2022-07-29T00:46:02;75946.72;;;-146.65;55.03
57094;BME280;42970;50.996;3.706;2022-07-29T00:48:28;75952.78;;;-146.65;55.16
57094;BME280;42970;50.996;3.706;2022-07-29T00:50:54;75958.81;;;-146.65;55.49
57094;BME280;42970;50.996;3.706;2022-07-29T00:53:21;75948.75;;;-146.65;55.27
57094;BME280;42970;50.996;3.706;2022-07-29T00:55:46;75944.69;;;-146.65;55.25
57094;BME280;42970;50.996;3.706;2022-07-29T00:58:12;75958.81;;;-146.65;55.46
57094;BME280;42970;50.996;3.706;2022-07-29T01:00:39;75956.81;;;-146.65;55.57
57094;BME280;42970;50.996;3.706;2022-07-29T01:03:06;75960.84;;;-146.65;55.50
57094;BME280;42970;50.996;3.706;2022-07-29T01:05:32;75960.84;;;-146.65;55.64
57094;BME280;42970;50.996;3.706;2022-07-29T01:07:59;75966.91;;;-146.65;55.93
57094;BME280;42970;50.996;3.706;2022-07-29T01:10:25;75960.84;;;-146.65;55.62
57094;BME280;42970;50.996;3.706;2022-07-29T01:12:52;75954.78;;;-146.65;55.68
57094;BME280;42970;50.996;3.706;2022-07-29T01:15:19;75966.91;;;-146.65;55.51
57094;BME280;42970;50.996;3.706;2022-07-29T01:17:53;75962.84;;;-146.65;55.68
57094;BME280;42970;50.996;3.706;2022-07-29T01:20:49;75970.94;;;-146.65;56.12
57094;BME280;42970;50.996;3.706;2022-07-29T01:26:28;75989.09;;;-146.65;56.58
57094;BME280;42970;50.996;3.706;2022-07-29T01:31:48;75993.13;;;-146.65;56.97
57094;BME280;42970;50.996;3.706;2022-07-29T01:34:27;75997.16;;;-146.65;57.02
57094;BME280;42970;50.996;3.706;2022-07-29T01:37:05;76003.22;;;-146.65;57.06
57094;BME280;42970;50.996;3.706;2022-07-29T01:39:35;76009.25;;;-146.65;57.35
57094;BME280;42970;50.996;3.706;2022-07-29T01:44:41;76005.22;;;-146.65;57.57
57094;BME280;42970;50.996;3.706;2022-07-29T01:47:14;76021.34;;;-146.65;57.70
57094;BME280;42970;50.996;3.706;2022-07-29T01:49:46;76021.34;;;-146.65;57.98
57094;BME280;42970;50.996;3.706;2022-07-29T01:52:21;76025.41;;;-146.65;58.36
57094;BME280;42970;50.996;3.706;2022-07-29T01:54:53;76031.44;;;-146.65;58.23
57094;BME280;42970;50.996;3.706;2022-07-29T01:57:26;76031.44;;;-146.65;58.49
57094;BME280;42970;50.996;3.706;2022-07-29T01:59:52;76035.47;;;-146.65;58.54
57094;BME280;42970;50.996;3.706;2022-07-29T02:02:20;76041.53;;;-146.65;58.75
57094;BME280;42970;50.996;3.706;2022-07-29T02:04:47;76045.56;;;-146.65;58.62
57094;BME280;42970;50.996;3.706;2022-07-29T02:07:17;76053.63;;;-146.65;59.05
57094;BME280;42970;50.996;3.706;2022-07-29T02:09:45;76053.63;;;-146.65;59.11
57094;BME280;42970;50.996;3.706;2022-07-29T02:12:13;76053.63;;;-146.65;59.23
57094;BME280;42970;50.996;3.706;2022-07-29T02:14:52;76055.66;;;-146.65;59.20
57094;BME280;42970;50.996;3.706;2022-07-29T02:17:25;76059.69;;;-146.65;59.60
57094;BME280;42970;50.996;3.706;2022-07-29T02:19:55;76063.72;;;-146.65;59.50
57094;BME280;42970;50.996;3.706;2022-07-29T02:22:22;76069.78;;;-146.65;59.78
57094;BME280;42970;50.996;3.706;2022-07-29T02:24:50;76073.81;;;-146.65;60.05
57094;BME280;42970;50.996;3.706;2022-07-29T02:27:18;76075.81;;;-146.65;59.87
57094;BME280;42970;50.996;3.706;2022-07-29T02:29:46;76071.78;;;-146.65;60.23
57094;BME280;42970;50.996;3.706;2022-07-29T02:32:13;76079.88;;;-146.65;60.25
57094;BME280;42970;50.996;3.706;2022-07-29T02:34:41;76085.91;;;-146.65;60.21
57094;BME280;42970;50.996;3.706;2022-07-29T02:37:11;76083.91;;;-146.65;60.48
57094;BME280;42970;50.996;3.706;2022-07-29T02:39:38;76083.91;;;-146.65;60.54
57094;BME280;42970;50.996;3.706;2022-07-29T02:42:07;76087.94;;;-146.65;60.55
57094;BME280;42970;50.996;3.706;2022-07-29T02:44:34;76089.94;;;-146.65;60.92
57094;BME280;42970;50.996;3.706;2022-07-29T02:49:52;76093.97;;;-146.65;61.31
57094;BME280;42970;50.996;3.706;2022-07-29T02:57:22;76106.09;;;-146.65;61.47
57094;BME280;42970;50.996;3.706;2022-07-29T02:59:58;76118.19;;;-146.65;61.61
57094;BME280;42970;50.996;3.706;2022-07-29T03:02:25;76122.22;;;-146.65;61.76
57094;BME280;42970;50.996;3.706;2022-07-29T03:04:53;76116.19;;;-146.65;61.73
57094;BME280;42970;50.996;3.706;2022-07-29T03:07:21;76122.22;;;-146.65;61.67
57094;BME280;42970;50.996;3.706;2022-07-29T03:09:47;76120.22;;;-146.65;61.81
57094;BME280;42970;50.996;3.706;2022-07-29T03:12:13;76134.31;;;-146.65;62.12
57094;BME280;42970;50.996;3.706;2022-07-29T03:14:40;76136.34;;;-146.65;62.04
57094;BME280;42970;50.996;3.706;2022-07-29T03:17:06;76140.38;;;-146.65;62.55
57094;BME280;42970;50.996;3.706;2022-07-29T03:19:32;76148.44;;;-146.65;62.50
57094;BME280;42970;50.996;3.706;2022-07-29T03:21:59;76144.41;;;-146.65;62.53
57094;BME280;42970;50.996;3.706;2022-07-29T03:24:33;76144.41;;;-146.65;62.42
57094;BME280;42970;50.996;3.706;2022-07-29T03:27:00;76150.47;;;-146.65;62.66
57094;BME280;42970;50.996;3.706;2022-07-29T03:29:26;76156.53;;;-146.65;62.79
57094;BME280;42970;50.996;3.706;2022-07-29T03:31:52;76158.53;;;-146.65;63.01
57094;BME280;42970;50.996;3.706;2022-07-29T03:34:18;76164.59;;;-146.65;63.16
57094;BME280;42970;50.996;3.706;2022-07-29T03:36:43;76162.56;;;-146.65;62.92
57094;BME280;42970;50.996;3.706;2022-07-29T03:39:10;76166.59;;;-146.65;63.12
57094;BME280;42970;50.996;3.706;2022-07-29T03:41:38;76172.66;;;-146.65;63.34
57094;BME280;42970;50.996;3.706;2022-07-29T03:44:05;76178.72;;;-146.65;63.52
57094;BME280;42970;50.996;3.706;2022-07-29T03:46:33;76178.72;;;-146.65;63.61
57094;BME280;42970;50.996;3.706;2022-07-29T03:49:03;76182.75;;;-146.65;63.91
57094;BME280;42970;50.996;3.706;2022-07-29T03:51:29;76190.81;;;-146.65;64.08
57094;BME280;42970;50.996;3.706;2022-07-29T03:53:55;76196.88;;;-146.65;64.20
57094;BME280;42970;50.996;3.706;2022-07-29T03:56:23;76186.78;;;-146.65;64.16
57094;BME280;42970;50.996;3.706;2022-07-29T03:58:52;76190.81;;;-146.65;64.40
57094;BME280;42970;50.996;3.706;2022-07-29T04:01:20;76204.94;;;-146.65;64.52
57094;BME280;42970;50.996;3.706;2022-07-29T04:03:46;76219.06;;;-146.65;64.81
57094;BME280;42970;50.996;3.706;2022-07-29T04:06:12;76206.97;;;-146.65;64.93
57094;BME280;42970;50.996;3.706;2022-07-29T04:08:37;76211.00;;;-146.65;64.78
57094;BME280;42970;50.996;3.706;2022-07-29T04:11:04;76223.09;;;-146.65;65.21
57094;BME280;42970;50.996;3.706;2022-07-29T04:13:32;76229.16;;;-146.65;65.58
57094;BME280;42970;50.996;3.706;2022-07-29T04:15:58;76225.13;;;-146.65;65.37
57094;BME280;42970;50.996;3.706;2022-07-29T04:18:24;76227.13;;;-146.65;65.46
57094;BME280;42970;50.996;3.706;2022-07-29T04:20:50;76221.06;;;-146.65;65.40
57094;BME280;42970;50.996;3.706;2022-07-29T04:23:15;76227.13;;;-146.65;65.50
57094;BME280;42970;50.996;3.706;2022-07-29T04:25:41;76219.06;;;-146.65;65.44
57094;BME280;42970;50.996;3.706;2022-07-29T04:28:08;76211.00;;;-146.65;65.40
57094;BME280;42970;50.996;3.706;2022-07-29T04:30:35;76217.03;;;-146.65;65.27
57094;BME280;42970;50.996;3.706;2022-07-29T04:33:02;76215.03;;;-146.65;65.47
57094;BME280;42970;50.996;3.706;2022-07-29T04:35:34;76221.06;;;-146.65;65.53
57094;BME280;42970;50.996;3.706;2022-07-29T04:38:00;76225.13;;;-146.65;65.76
57094;BME280;42970;50.996;3.706;2022-07-29T04:40:25;76215.03;;;-146.65;65.34
57094;BME280;42970;50.996;3.706;2022-07-29T04:42:51;76231.16;;;-146.65;65.76
57094;BME280;42970;50.996;3.706;2022-07-29T04:45:17;76237.22;;;-146.65;65.64
57094;BME280;42970;50.996;3.706;2022-07-29T04:47:42;76245.28;;;-146.65;65.66
57094;BME280;42970;50.996;3.706;2022-07-29T04:50:08;76245.28;;;-146.65;65.81
57094;BME280;42970;50.996;3.706;2022-07-29T04:52:38;76255.38;;;-146.65;66.22
57094;BME280;42970;50.996;3.706;2022-07-29T04:55:05;76263.44;;;-146.65;66.47
57094;BME280;42970;50.996;3.706;2022-07-29T04:57:30;76271.50;;;-146.65;67.15
57094;BME280;42970;50.996;3.706;2022-07-29T04:59:56;76267.47;;;-146.65;67.56
57094;BME280;42970;50.996;3.706;2022-07-29T05:02:21;76267.47;;;-146.65;68.06
57094;BME280;42970;50.996;3.706;2022-07-29T05:04:47;76261.44;;;-146.65;67.59
57094;BME280;42970;50.996;3.706;2022-07-29T05:07:13;76255.38;;;-146.65;67.26
57094;BME280;42970;50.996;3.706;2022-07-29T05:09:39;76241.25;;;-146.65;67.29
57094;BME280;42970;50.996;3.706;2022-07-29T05:12:05;76219.06;;;-146.65;66.46
57094;BME280;42970;50.996;3.706;2022-07-29T05:14:31;76206.97;;;-146.65;66.07
57094;BME280;42970;50.996;3.706;2022-07-29T05:16:56;76194.84;;;-146.65;65.58
57094;BME280;42970;50.996;3.706;2022-07-29T05:19:22;76186.78;;;-146.65;65.34
57094;BME280;42970;50.996;3.706;2022-07-29T05:21:48;76170.66;;;-146.65;64.67
57094;BME280;42970;50.996;3.706;2022-07-29T05:24:14;76150.47;;;-146.65;64.52
57094;BME280;42970;50.996;3.706;2022-07-29T05:26:39;76148.44;;;-146.65;64.57
57094;BME280;42970;50.996;3.706;2022-07-29T05:29:05;76156.53;;;-146.65;65.14
57094;BME280;42970;50.996;3.706;2022-07-29T05:31:31;76162.56;;;-146.65;65.36
57094;BME280;42970;50.996;3.706;2022-07-29T05:33:56;76162.56;;;-146.65;65.37
57094;BME280;42970;50.996;3.706;2022-07-29T05:36:22;76152.50;;;-146.65;65.23
57094;BME280;42970;50.996;3.706;2022-07-29T05:38:47;76146.44;;;-146.65;65.18
57094;BME280;42970;50.996;3.706;2022-07-29T05:41:12;76146.44;;;-146.65;65.21
57094;BME280;42970;50.996;3.706;2022-07-29T05:43:38;76130.28;;;-146.65;64.41
57094;BME280;42970;50.996;3.706;2022-07-29T05:46:03;76102.06;;;-146.65;64.34
57094;BME280;42970;50.996;3.706;2022-07-29T05:48:29;76089.94;;;-146.65;64.21
57094;BME280;42970;50.996;3.706;2022-07-29T05:50:55;76073.81;;;-146.65;64.29
57094;BME280;42970;50.996;3.706;2022-07-29T05:53:21;76069.78;;;-146.65;63.53
57094;BME280;42970;50.996;3.706;2022-07-29T05:55:47;76039.50;;;-146.65;61.39
57094;BME280;42970;50.996;3.706;2022-07-29T05:58:12;76019.34;;;-146.65;60.28
57094;BME280;42970;50.996;3.706;2022-07-29T06:00:38;75993.13;;;-146.65;59.16
57094;BME280;42970;50.996;3.706;2022-07-29T06:03:03;75985.03;;;-146.65;58.64
57094;BME280;42970;50.996;3.706;2022-07-29T06:05:29;75968.91;;;-146.65;58.07
57094;BME280;42970;50.996;3.706;2022-07-29T06:07:54;75954.78;;;-146.65;57.76
57094;BME280;42970;50.996;3.706;2022-07-29T06:10:20;75950.75;;;-146.65;58.62
57094;BME280;42970;50.996;3.706;2022-07-29T06:12:45;75952.78;;;-146.65;57.53
57094;BME280;42970;50.996;3.706;2022-07-29T06:15:11;75944.69;;;-146.65;57.29
57094;BME280;42970;50.996;3.706;2022-07-29T06:17:36;75920.50;;;-146.65;56.83
57094;BME280;42970;50.996;3.706;2022-07-29T06:20:03;75900.31;;;-146.65;56.47
57094;BME280;42970;50.996;3.706;2022-07-29T06:22:28;75890.25;;;-146.65;56.35
57094;BME280;42970;50.996;3.706;2022-07-29T06:24:54;75882.16;;;-146.65;55.92
57094;BME280;42970;50.996;3.706;2022-07-29T06:27:19;75866.03;;;-146.65;55.76
57094;BME280;42970;50.996;3.706;2022-07-29T06:29:45;75866.03;;;-146.65;55.44
57094;BME280;42970;50.996;3.706;2022-07-29T06:32:10;75843.84;;;-146.65;55.49
57094;BME280;42970;50.996;3.706;2022-07-29T06:34:36;75837.78;;;-146.65;54.95
57094;BME280;42970;50.996;3.706;2022-07-29T06:37:08;75831.75;;;-146.65;55.04
57094;BME280;42970;50.996;3.706;2022-07-29T06:39:37;75821.66;;;-146.65;54.84
57094;BME280;42970;50.996;3.706;2022-07-29T06:42:06;75815.59;;;-146.65;54.58
57094;BME280;42970;50.996;3.706;2022-07-29T06:44:32;75809.56;;;-146.65;54.79
57094;BME280;42970;50.996;3.706;2022-07-29T06:47:00;75795.44;;;-146.65;53.55
57094;BME280;42970;50.996;3.706;2022-07-29T06:49:26;75783.31;;;-146.65;53.46
57094;BME280;42970;50.996;3.706;2022-07-29T06:51:53;75775.25;;;-146.65;53.41
57094;BME280;42970;50.996;3.706;2022-07-29T06:54:19;75775.25;;;-146.65;52.99
57094;BME280;42970;50.996;3.706;2022-07-29T06:56:45;75779.28;;;-146.65;53.28
57094;BME280;42970;50.996;3.706;2022-07-29T06:59:12;75789.38;;;-146.65;53.52
57094;BME280;42970;50.996;3.706;2022-07-29T07:01:42;75765.16;;;-146.65;54.19
57094;BME280;42970;50.996;3.706;2022-07-29T07:04:08;75779.28;;;-146.65;53.88
57094;BME280;42970;50.996;3.706;2022-07-29T07:06:34;75769.22;;;-146.65;53.22
57094;BME280;42970;50.996;3.706;2022-07-29T07:09:00;75771.22;;;-146.65;53.12
57094;BME280;42970;50.996;3.706;2022-07-29T07:11:25;75751.06;;;-146.65;53.25
57094;BME280;42970;50.996;3.706;2022-07-29T07:13:50;75738.94;;;-146.65;52.94
57094;BME280;42970;50.996;3.706;2022-07-29T07:16:16;75771.22;;;-146.65;53.28
57094;BME280;42970;50.996;3.706;2022-07-29T07:18:42;75759.13;;;-146.65;53.21
57094;BME280;42970;50.996;3.706;2022-07-29T07:21:07;75738.94;;;-146.65;53.20
57094;BME280;42970;50.996;3.706;2022-07-29T07:23:32;75751.06;;;-146.65;53.08
57094;BME280;42970;50.996;3.706;2022-07-29T07:25:58;75722.81;;;-146.65;52.97
57094;BME280;42970;50.996;3.706;2022-07-29T07:28:23;75692.56;;;-146.65;52.20
57094;BME280;42970;50.996;3.706;2022-07-29T07:30:49;75694.56;;;-146.65;51.40
57094;BME280;42970;50.996;3.706;2022-07-29T07:33:14;75698.59;;;-146.65;51.80
57094;BME280;42970;50.996;3.706;2022-07-29T07:35:40;75684.50;;;-146.65;52.31
57094;BME280;42970;50.996;3.706;2022-07-29T07:38:06;75674.41;;;-146.65;51.91
57094;BME280;42970;50.996;3.706;2022-07-29T07:40:32;75650.19;;;-146.65;51.57
57094;BME280;42970;50.996;3.706;2022-07-29T07:42:57;75642.13;;;-146.65;50.82
57094;BME280;42970;50.996;3.706;2022-07-29T07:45:23;75626.00;;;-146.65;50.62
57094;BME280;42970;50.996;3.706;2022-07-29T07:47:49;75628.00;;;-146.65;50.13
57094;BME280;42970;50.996;3.706;2022-07-29T07:50:14;75601.78;;;-146.65;50.72
57094;BME280;42970;50.996;3.706;2022-07-29T07:52:51;75583.63;;;-146.65;50.13
57094;BME280;42970;50.996;3.706;2022-07-29T07:55:17;75581.63;;;-146.65;49.16
57094;BME280;42970;50.996;3.706;2022-07-29T07:57:44;75557.41;;;-146.65;49.01
57094;BME280;42970;50.996;3.706;2022-07-29T08:00:10;75527.16;;;-146.65;47.70
57094;BME280;42970;50.996;3.706;2022-07-29T08:02:37;75513.03;;;-146.65;47.20
57094;BME280;42970;50.996;3.706;2022-07-29T08:05:03;75541.28;;;-146.65;48.06
57094;BME280;42970;50.996;3.706;2022-07-29T08:07:28;75517.06;;;-146.65;47.92
57094;BME280;42970;50.996;3.706;2022-07-29T08:09:54;75488.84;;;-146.65;47.75
57094;BME280;42970;50.996;3.706;2022-07-29T08:12:19;75484.78;;;-146.65;47.25
57094;BME280;42970;50.996;3.706;2022-07-29T08:14:45;75464.63;;;-146.65;47.19
57094;BME280;42970;50.996;3.706;2022-07-29T08:17:10;75456.56;;;-146.65;46.98
57094;BME280;42970;50.996;3.706;2022-07-29T08:19:35;75452.53;;;-146.65;46.51
57094;BME280;42970;50.996;3.706;2022-07-29T08:22:02;75486.81;;;-146.65;47.56
57094;BME280;42970;50.996;3.706;2022-07-29T08:24:27;75484.78;;;-146.65;47.35
57094;BME280;42970;50.996;3.706;2022-07-29T08:27:11;75464.63;;;-146.65;46.34
57094;BME280;42970;50.996;3.706;2022-07-29T08:29:38;75470.69;;;-146.65;46.44
57094;BME280;42970;50.996;3.706;2022-07-29T08:32:04;75476.72;;;-146.65;46.67
57094;BME280;42970;50.996;3.706;2022-07-29T08:34:30;75468.66;;;-146.65;45.78
57094;BME280;42970;50.996;3.706;2022-07-29T08:36:56;75486.81;;;-146.65;46.75
57094;BME280;42970;50.996;3.706;2022-07-29T08:39:22;75448.50;;;-146.65;46.67
57094;BME280;42970;50.996;3.706;2022-07-29T08:41:48;75406.13;;;-146.65;46.07
57094;BME280;42970;50.996;3.706;2022-07-29T08:44:16;75418.25;;;-146.65;45.28
57094;BME280;42970;50.996;3.706;2022-07-29T08:46:42;75394.03;;;-146.65;45.20
57094;BME280;42970;50.996;3.706;2022-07-29T08:49:08;75385.97;;;-146.65;44.84
57094;BME280;42970;50.996;3.706;2022-07-29T08:51:34;75394.03;;;-146.65;44.26
57094;BME280;42970;50.996;3.706;2022-07-29T08:54:02;75379.91;;;-146.65;44.20
57094;BME280;42970;50.996;3.706;2022-07-29T08:56:28;75406.13;;;-146.65;42.49
57094;BME280;42970;50.996;3.706;2022-07-29T08:58:54;75426.31;;;-146.65;42.98
57094;BME280;42970;50.996;3.706;2022-07-29T09:01:24;75404.13;;;-146.65;43.08
57094;BME280;42970;50.996;3.706;2022-07-29T09:03:54;75345.63;;;-146.65;42.78
57094;BME280;42970;50.996;3.706;2022-07-29T09:06:21;75287.13;;;-146.65;42.37
57094;BME280;42970;50.996;3.706;2022-07-29T09:08:47;75275.03;;;-146.65;41.73
57094;BME280;42970;50.996;3.706;2022-07-29T09:11:14;75277.06;;;-146.65;41.92
57094;BME280;42970;50.996;3.706;2022-07-29T09:13:40;75262.94;;;-146.65;41.96
57094;BME280;42970;50.996;3.706;2022-07-29T09:16:06;75242.75;;;-146.65;42.40
57094;BME280;42970;50.996;3.706;2022-07-29T09:18:39;75291.16;;;-146.65;42.72
57094;BME280;42970;50.996;3.706;2022-07-29T09:21:13;75254.88;;;-146.65;42.97
57094;BME280;42970;50.996;3.706;2022-07-29T09:26:33;75222.59;;;-146.65;42.72
57094;BME280;42970;50.996;3.706;2022-07-29T09:28:59;75180.25;;;-146.65;42.23
57094;BME280;42970;50.996;3.706;2022-07-29T09:31:48;75170.16;;;-146.65;41.95
57094;BME280;42970;50.996;3.706;2022-07-29T09:34:17;75162.09;;;-146.65;41.62
57094;BME280;42970;50.996;3.706;2022-07-29T09:36:47;75111.66;;;-146.65;40.89
57094;BME280;42970;50.996;3.706;2022-07-29T09:39:15;75083.44;;;-146.65;40.22
57094;BME280;42970;50.996;3.706;2022-07-29T09:41:53;75063.25;;;-146.65;39.38
57094;BME280;42970;50.996;3.706;2022-07-29T09:44:19;75101.59;;;-146.65;39.80
57094;BME280;42970;50.996;3.706;2022-07-29T09:46:58;75131.84;;;-146.65;40.58
57094;BME280;42970;50.996;3.706;2022-07-29T09:49:24;75107.63;;;-146.65;40.02
57094;BME280;42970;50.996;3.706;2022-07-29T09:52:16;75057.22;;;-146.65;38.81
57094;BME280;42970;50.996;3.706;2022-07-29T09:54:41;75063.25;;;-146.65;38.22
57094;BME280;42970;50.996;3.706;2022-07-29T09:57:24;75008.81;;;-146.65;37.95
57094;BME280;42970;50.996;3.706;2022-07-29T10:00:19;75020.91;;;-146.65;36.82
57094;BME280;42970;50.996;3.706;2022-07-29T10:02:46;75000.75;;;-146.65;36.86
57094;BME280;42970;50.996;3.706;2022-07-29T10:05:23;75101.59;;;-146.65;38.05
57094;BME280;42970;50.996;3.706;2022-07-29T10:07:56;75012.84;;;-146.65;38.24
57094;BME280;42970;50.996;3.706;2022-07-29T10:12:55;75008.81;;;-146.65;36.68
57094;BME280;42970;50.996;3.706;2022-07-29T10:15:23;75010.81;;;-146.65;36.63
57094;BME280;42970;50.996;3.706;2022-07-29T10:17:50;75002.75;;;-146.65;36.61
57094;BME280;42970;50.996;3.706;2022-07-29T10:20:16;75045.13;;;-146.65;36.59
57094;BME280;42970;50.996;3.706;2022-07-29T10:22:42;74998.72;;;-146.65;36.33
57094;BME280;42970;50.996;3.706;2022-07-29T10:25:09;74998.72;;;-146.65;36.62
57094;BME280;42970;50.996;3.706;2022-07-29T10:27:36;74905.97;;;-146.65;36.40
57094;BME280;42970;50.996;3.706;2022-07-29T10:30:02;74895.88;;;-146.65;35.09
57094;BME280;42970;50.996;3.706;2022-07-29T10:35:33;74845.47;;;-146.65;35.21
57094;BME280;42970;50.996;3.706;2022-07-29T10:38:34;74833.34;;;-146.65;35.18
57094;BME280;42970;50.996;3.706;2022-07-29T10:41:29;74887.81;;;-146.65;35.02
57094;BME280;42970;50.996;3.706;2022-07-29T10:44:06;74954.34;;;-146.65;35.74
57094;BME280;42970;50.996;3.706;2022-07-29T10:46:37;74803.09;;;-146.65;35.81
57094;BME280;42970;50.996;3.706;2022-07-29T10:54:48;74843.44;;;-146.65;33.13
57094;BME280;42970;50.996;3.706;2022-07-29T10:57:20;74895.88;;;-146.65;33.95
57094;BME280;42970;50.996;3.706;2022-07-29T10:59:52;74984.59;;;-146.65;34.75
57094;BME280;42970;50.996;3.706;2022-07-29T11:05:15;75117.72;;;-146.65;35.52
57094;BME280;42970;50.996;3.706;2022-07-29T11:10:37;75101.59;;;-146.65;35.71
57094;BME280;42970;50.996;3.706;2022-07-29T11:13:02;75091.50;;;-146.65;35.74
57094;BME280;42970;50.996;3.706;2022-07-29T11:15:28;75055.19;;;-146.65;35.10
57094;BME280;42970;50.996;3.706;2022-07-29T11:20:38;74924.09;;;-146.65;33.51
57094;BME280;42970;50.996;3.706;2022-07-29T11:23:31;74914.03;;;-146.65;33.30
57094;BME280;42970;50.996;3.706;2022-07-29T11:31:13;74726.47;;;-146.65;31.70
57094;BME280;42970;50.996;3.706;2022-07-29T11:33:41;74760.75;;;-146.65;32.29
57094;BME280;42970;50.996;3.706;2022-07-29T11:36:13;74815.19;;;-146.65;32.81
57094;BME280;42970;50.996;3.706;2022-07-29T11:38:40;74782.94;;;-146.65;32.97
57094;BME280;42970;50.996;3.706;2022-07-29T11:43:55;74728.50;;;-146.65;32.12
57094;BME280;42970;50.996;3.706;2022-07-29T11:49:07;74544.97;;;-146.65;30.94
57094;BME280;42970;50.996;3.706;2022-07-29T11:51:38;74528.84;;;-146.65;30.48
57094;BME280;42970;50.996;3.706;2022-07-29T11:54:05;74460.28;;;-146.65;30.21
57094;BME280;42970;50.996;3.706;2022-07-29T11:56:34;74500.63;;;-146.65;30.24
57094;BME280;42970;50.996;3.706;2022-07-29T11:59:05;74480.44;;;-146.65;30.05
57094;BME280;42970;50.996;3.706;2022-07-29T12:01:31;74365.50;;;-146.65;29.01
57094;BME280;42970;50.996;3.706;2022-07-29T12:04:06;74444.16;;;-146.65;29.16
57094;BME280;42970;50.996;3.706;2022-07-29T12:06:35;74601.44;;;-146.65;30.51
57094;BME280;42970;50.996;3.706;2022-07-29T12:09:00;74331.22;;;-146.65;28.77
57094;BME280;42970;50.996;3.706;2022-07-29T12:11:31;74258.63;;;-146.65;27.93
57094;BME280;42970;50.996;3.706;2022-07-29T12:13:56;74228.41;;;-146.65;27.75
57094;BME280;42970;50.996;3.706;2022-07-29T12:16:22;74327.19;;;-146.65;27.93
57094;BME280;42970;50.996;3.706;2022-07-29T12:18:58;74428.03;;;-146.65;28.53
57094;BME280;42970;50.996;3.706;2022-07-29T12:21:24;74653.88;;;-146.65;30.10
57094;BME280;42970;50.996;3.706;2022-07-29T12:23:53;74549.00;;;-146.65;29.46
57094;BME280;42970;50.996;3.706;2022-07-29T12:26:20;74375.59;;;-146.65;28.82
57094;BME280;42970;50.996;3.706;2022-07-29T12:28:45;74583.28;;;-146.65;29.76
57094;BME280;42970;50.996;3.706;2022-07-29T12:31:15;74553.03;;;-146.65;29.48
57094;BME280;42970;50.996;3.706;2022-07-29T12:33:41;74415.91;;;-146.65;29.43
57094;BME280;42970;50.996;3.706;2022-07-29T12:36:07;74339.28;;;-146.65;27.94
57094;BME280;42970;50.996;3.706;2022-07-29T12:38:37;74331.22;;;-146.65;28.11
57094;BME280;42970;50.996;3.706;2022-07-29T12:41:05;74230.41;;;-146.65;27.41
57094;BME280;42970;50.996;3.706;2022-07-29T12:43:31;74444.16;;;-146.65;29.11
57094;BME280;42970;50.996;3.706;2022-07-29T12:45:57;74690.16;;;-146.65;30.69
57094;BME280;42970;50.996;3.706;2022-07-29T12:48:36;74522.78;;;-146.65;29.90
57094;BME280;42970;50.996;3.706;2022-07-29T12:51:03;74438.09;;;-146.65;28.98
57094;BME280;42970;50.996;3.706;2022-07-29T12:53:29;74635.72;;;-146.65;30.26
57094;BME280;42970;50.996;3.706;2022-07-29T12:55:56;74694.22;;;-146.65;30.66
57094;BME280;42970;50.996;3.706;2022-07-29T12:58:34;74770.84;;;-146.65;31.23
57094;BME280;42970;50.996;3.706;2022-07-29T13:01:07;74841.41;;;-146.65;32.29
57094;BME280;42970;50.996;3.706;2022-07-29T13:03:53;74696.22;;;-146.65;30.60
57094;BME280;42970;50.996;3.706;2022-07-29T13:06:41;74472.38;;;-146.65;29.04
57094;BME280;42970;50.996;3.706;2022-07-29T13:09:17;74476.41;;;-146.65;28.76
57094;BME280;42970;50.996;3.706;2022-07-29T13:11:48;74373.56;;;-146.65;28.02
57094;BME280;42970;50.996;3.706;2022-07-29T13:14:30;74333.25;;;-146.65;27.71
57094;BME280;42970;50.996;3.706;2022-07-29T13:17:05;74321.16;;;-146.65;28.04
57094;BME280;42970;50.996;3.706;2022-07-29T13:19:35;74480.44;;;-146.65;29.83
57094;BME280;42970;50.996;3.706;2022-07-29T13:22:00;74573.22;;;-146.65;30.11
57094;BME280;42970;50.996;3.706;2022-07-29T13:24:26;74668.00;;;-146.65;30.91
57094;BME280;42970;50.996;3.706;2022-07-29T13:26:51;74399.78;;;-146.65;29.28
57094;BME280;42970;50.996;3.706;2022-07-29T13:29:17;74298.97;;;-146.65;28.31
57094;BME280;42970;50.996;3.706;2022-07-29T13:31:42;74311.06;;;-146.65;28.15
57094;BME280;42970;50.996;3.706;2022-07-29T13:34:08;74341.31;;;-146.65;28.58
57094;BME280;42970;50.996;3.706;2022-07-29T13:36:33;74549.00;;;-146.65;29.93